sensor_id;sensor_type;location;lat;lon;timestamp;P1;durP1;ratioP1;P2;durP2;ratioP2
63008;SDS011;49099;28.428;-16.488;2022-08-21T00:00:15;19.02;;;6.20;;
63008;SDS011;49099;28.428;-16.488;2022-08-21T00:02:47;26.50;;;6.35;;
63008;SDS011;49099;28.428;-16.488;2022-08-21T00:05:20;21.52;;;6.00;;
63008;SDS011;49099;28.428;-16.488;2022-08-21T00:07:48;25.98;;;6.03;;
63008;SDS011;49099;28.428;-16.488;2022-08-21T00:10:15;22.67;;;5.88;;
63008;SDS011;49099;28.428;-16.488;2022-08-21T00:12:43;23.13;;;5.75;;
63008;SDS011;49099;28.428;-16.488;2022-08-21T00:15:13;20.67;;;5.72;;
63008;SDS011;49099;28.428;-16.488;2022-08-21T00:17:43;25.75;;;5.78;;
63008;SDS011;49099;28.428;-16.488;2022-08-21T00:20:11;20.88;;;6.22;;
63008;SDS011;49099;28.428;-16.488;2022-08-21T00:22:39;21.33;;;5.53;;
63008;SDS011;49099;28.428;-16.488;2022-08-21T00:25:07;26.42;;;5.97;;
63008;SDS011;49099;28.428;-16.488;2022-08-21T00:27:35;21.95;;;6.15;;
63008;SDS011;49099;28.428;-16.488;2022-08-21T00:30:04;25.02;;;5.60;;
63008;SDS011;49099;28.428;-16.488;2022-08-21T00:32:33;21.98;;;5.35;;
63008;SDS011;49099;28.428;-16.488;2022-08-21T00:35:02;23.15;;;5.68;;
63008;SDS011;49099;28.428;-16.488;2022-08-21T00:37:31;21.25;;;5.47;;
63008;SDS011;49099;28.428;-16.488;2022-08-21T00:40:00;19.58;;;5.45;;
63008;SDS011;49099;28.428;-16.488;2022-08-21T00:42:28;19.73;;;5.05;;
63008;SDS011;49099;28.428;-16.488;2022-08-21T00:44:56;23.70;;;5.65;;
63008;SDS011;49099;28.428;-16.488;2022-08-21T00:47:24;19.75;;;5.68;;
63008;SDS011;49099;28.428;-16.488;2022-08-21T00:49:51;15.35;;;4.85;;
63008;SDS011;49099;28.428;-16.488;2022-08-21T00:52:20;15.20;;;4.40;;
63008;SDS011;49099;28.428;-16.488;2022-08-21T00:54:51;13.82;;;4.30;;
63008;SDS011;49099;28.428;-16.488;2022-08-21T00:57:27;17.25;;;4.57;;
63008;SDS011;49099;28.428;-16.488;2022-08-21T00:59:58;16.75;;;4.60;;
63008;SDS011;49099;28.428;-16.488;2022-08-21T01:02:28;13.32;;;4.50;;
63008;SDS011;49099;28.428;-16.488;2022-08-21T01:04:56;24.77;;;5.15;;
63008;SDS011;49099;28.428;-16.488;2022-08-21T01:07:24;13.05;;;4.30;;
63008;SDS011;49099;28.428;-16.488;2022-08-21T01:09:53;17.60;;;4.40;;
63008;SDS011;49099;28.428;-16.488;2022-08-21T01:12:20;11.50;;;4.03;;
63008;SDS011;49099;28.428;-16.488;2022-08-21T01:14:47;20.50;;;5.18;;
63008;SDS011;49099;28.428;-16.488;2022-08-21T01:17:15;15.63;;;4.63;;
63008;SDS011;49099;28.428;-16.488;2022-08-21T01:19:43;15.50;;;4.53;;
63008;SDS011;49099;28.428;-16.488;2022-08-21T01:22:10;17.58;;;4.82;;
63008;SDS011;49099;28.428;-16.488;2022-08-21T01:24:38;15.65;;;4.15;;
63008;SDS011;49099;28.428;-16.488;2022-08-21T01:27:05;13.10;;;4.07;;
63008;SDS011;49099;28.428;-16.488;2022-08-21T01:29:43;15.82;;;4.28;;
63008;SDS011;49099;28.428;-16.488;2022-08-21T01:32:15;14.57;;;4.22;;
63008;SDS011;49099;28.428;-16.488;2022-08-21T01:34:45;14.95;;;4.03;;
63008;SDS011;49099;28.428;-16.488;2022-08-21T01:37:15;17.92;;;4.68;;
63008;SDS011;49099;28.428;-16.488;2022-08-21T01:39:45;18.23;;;4.38;;
63008;SDS011;49099;28.428;-16.488;2022-08-21T01:42:13;16.88;;;4.22;;
63008;SDS011;49099;28.428;-16.488;2022-08-21T01:44:41;12.75;;;4.07;;
63008;SDS011;49099;28.428;-16.488;2022-08-21T01:47:09;15.35;;;4.07;;
63008;SDS011;49099;28.428;-16.488;2022-08-21T01:49:39;20.25;;;4.40;;
63008;SDS011;49099;28.428;-16.488;2022-08-21T01:52:08;16.60;;;4.43;;
63008;SDS011;49099;28.428;-16.488;2022-08-21T01:54:36;16.65;;;3.95;;
63008;SDS011;49099;28.428;-16.488;2022-08-21T01:57:04;14.13;;;4.40;;
63008;SDS011;49099;28.428;-16.488;2022-08-21T01:59:31;16.75;;;4.57;;
63008;SDS011;49099;28.428;-16.488;2022-08-21T02:01:59;18.40;;;5.25;;
63008;SDS011;49099;28.428;-16.488;2022-08-21T02:04:27;14.93;;;4.00;;
63008;SDS011;49099;28.428;-16.488;2022-08-21T02:06:54;15.55;;;4.38;;
63008;SDS011;49099;28.428;-16.488;2022-08-21T02:09:21;13.52;;;4.20;;
63008;SDS011;49099;28.428;-16.488;2022-08-21T02:11:49;19.65;;;4.85;;
63008;SDS011;49099;28.428;-16.488;2022-08-21T02:14:17;22.52;;;5.15;;
63008;SDS011;49099;28.428;-16.488;2022-08-21T02:16:58;20.80;;;4.95;;
63008;SDS011;49099;28.428;-16.488;2022-08-21T02:19:31;21.43;;;5.00;;
63008;SDS011;49099;28.428;-16.488;2022-08-21T02:22:07;21.75;;;4.93;;
63008;SDS011;49099;28.428;-16.488;2022-08-21T02:24:36;23.98;;;5.22;;
63008;SDS011;49099;28.428;-16.488;2022-08-21T02:27:21;22.20;;;5.20;;
63008;SDS011;49099;28.428;-16.488;2022-08-21T02:29:52;19.85;;;4.75;;
63008;SDS011;49099;28.428;-16.488;2022-08-21T02:32:20;20.98;;;4.60;;
63008;SDS011;49099;28.428;-16.488;2022-08-21T02:34:48;16.55;;;4.53;;
63008;SDS011;49099;28.428;-16.488;2022-08-21T02:37:15;21.65;;;5.55;;
63008;SDS011;49099;28.428;-16.488;2022-08-21T02:39:43;16.58;;;4.13;;
63008;SDS011;49099;28.428;-16.488;2022-08-21T02:42:10;15.75;;;4.30;;
63008;SDS011;49099;28.428;-16.488;2022-08-21T02:44:37;13.82;;;3.67;;
63008;SDS011;49099;28.428;-16.488;2022-08-21T02:47:04;17.17;;;4.15;;
63008;SDS011;49099;28.428;-16.488;2022-08-21T02:49:31;17.85;;;4.25;;
63008;SDS011;49099;28.428;-16.488;2022-08-21T02:51:58;17.58;;;4.20;;
63008;SDS011;49099;28.428;-16.488;2022-08-21T02:54:25;18.10;;;4.20;;
63008;SDS011;49099;28.428;-16.488;2022-08-21T02:56:53;14.88;;;4.00;;
63008;SDS011;49099;28.428;-16.488;2022-08-21T02:59:20;16.45;;;4.30;;
63008;SDS011;49099;28.428;-16.488;2022-08-21T03:01:47;16.90;;;4.32;;
63008;SDS011;49099;28.428;-16.488;2022-08-21T03:04:14;13.88;;;3.50;;
63008;SDS011;49099;28.428;-16.488;2022-08-21T03:06:42;12.07;;;3.45;;
63008;SDS011;49099;28.428;-16.488;2022-08-21T03:09:09;13.30;;;3.67;;
63008;SDS011;49099;28.428;-16.488;2022-08-21T03:11:36;17.42;;;3.38;;
63008;SDS011;49099;28.428;-16.488;2022-08-21T03:14:03;15.30;;;2.90;;
63008;SDS011;49099;28.428;-16.488;2022-08-21T03:16:31;18.27;;;3.30;;
63008;SDS011;49099;28.428;-16.488;2022-08-21T03:19:00;13.30;;;3.47;;
63008;SDS011;49099;28.428;-16.488;2022-08-21T03:21:27;12.07;;;3.33;;
63008;SDS011;49099;28.428;-16.488;2022-08-21T03:23:55;13.63;;;3.00;;
63008;SDS011;49099;28.428;-16.488;2022-08-21T03:26:22;16.05;;;3.53;;
63008;SDS011;49099;28.428;-16.488;2022-08-21T03:28:53;10.55;;;2.90;;
63008;SDS011;49099;28.428;-16.488;2022-08-21T03:31:20;13.98;;;3.05;;
63008;SDS011;49099;28.428;-16.488;2022-08-21T03:33:48;11.98;;;3.00;;
63008;SDS011;49099;28.428;-16.488;2022-08-21T03:36:15;17.10;;;4.13;;
63008;SDS011;49099;28.428;-16.488;2022-08-21T03:38:42;17.35;;;4.53;;
63008;SDS011;49099;28.428;-16.488;2022-08-21T03:41:09;21.35;;;4.72;;
63008;SDS011;49099;28.428;-16.488;2022-08-21T03:43:36;13.30;;;3.80;;
63008;SDS011;49099;28.428;-16.488;2022-08-21T03:46:05;21.48;;;4.68;;
63008;SDS011;49099;28.428;-16.488;2022-08-21T03:48:33;26.60;;;5.00;;
63008;SDS011;49099;28.428;-16.488;2022-08-21T03:51:01;23.73;;;5.28;;
63008;SDS011;49099;28.428;-16.488;2022-08-21T03:53:29;24.38;;;5.55;;
63008;SDS011;49099;28.428;-16.488;2022-08-21T03:55:56;20.30;;;5.65;;
63008;SDS011;49099;28.428;-16.488;2022-08-21T03:58:24;22.27;;;5.68;;
63008;SDS011;49099;28.428;-16.488;2022-08-21T04:00:54;23.27;;;5.93;;
63008;SDS011;49099;28.428;-16.488;2022-08-21T04:03:23;20.27;;;5.18;;
63008;SDS011;49099;28.428;-16.488;2022-08-21T04:05:51;24.52;;;5.78;;
63008;SDS011;49099;28.428;-16.488;2022-08-21T04:08:18;24.17;;;5.43;;
63008;SDS011;49099;28.428;-16.488;2022-08-21T04:10:47;21.85;;;5.00;;
63008;SDS011;49099;28.428;-16.488;2022-08-21T04:13:17;24.00;;;5.13;;
63008;SDS011;49099;28.428;-16.488;2022-08-21T04:15:45;29.08;;;5.90;;
63008;SDS011;49099;28.428;-16.488;2022-08-21T04:18:12;19.85;;;5.22;;
63008;SDS011;49099;28.428;-16.488;2022-08-21T04:20:40;21.02;;;5.47;;
63008;SDS011;49099;28.428;-16.488;2022-08-21T04:23:15;25.08;;;5.57;;
63008;SDS011;49099;28.428;-16.488;2022-08-21T04:25:50;27.15;;;4.93;;
63008;SDS011;49099;28.428;-16.488;2022-08-21T04:28:19;21.00;;;5.32;;
63008;SDS011;49099;28.428;-16.488;2022-08-21T04:30:49;23.05;;;5.47;;
63008;SDS011;49099;28.428;-16.488;2022-08-21T04:33:17;28.00;;;5.57;;
63008;SDS011;49099;28.428;-16.488;2022-08-21T04:35:44;19.40;;;5.30;;
63008;SDS011;49099;28.428;-16.488;2022-08-21T04:38:11;20.80;;;4.82;;
63008;SDS011;49099;28.428;-16.488;2022-08-21T04:40:38;19.27;;;5.15;;
63008;SDS011;49099;28.428;-16.488;2022-08-21T04:43:07;18.42;;;5.20;;
63008;SDS011;49099;28.428;-16.488;2022-08-21T04:45:40;19.67;;;5.07;;
63008;SDS011;49099;28.428;-16.488;2022-08-21T04:48:10;23.02;;;5.07;;
63008;SDS011;49099;28.428;-16.488;2022-08-21T04:50:55;18.10;;;4.93;;
63008;SDS011;49099;28.428;-16.488;2022-08-21T04:53:33;17.52;;;4.05;;
63008;SDS011;49099;28.428;-16.488;2022-08-21T04:56:02;23.17;;;4.95;;
63008;SDS011;49099;28.428;-16.488;2022-08-21T04:58:35;21.80;;;4.50;;
63008;SDS011;49099;28.428;-16.488;2022-08-21T05:01:04;19.42;;;4.55;;
63008;SDS011;49099;28.428;-16.488;2022-08-21T05:03:35;18.92;;;4.80;;
63008;SDS011;49099;28.428;-16.488;2022-08-21T05:06:04;22.23;;;5.25;;
63008;SDS011;49099;28.428;-16.488;2022-08-21T05:08:33;18.35;;;4.85;;
63008;SDS011;49099;28.428;-16.488;2022-08-21T05:11:01;19.73;;;4.90;;
63008;SDS011;49099;28.428;-16.488;2022-08-21T05:13:29;16.92;;;4.70;;
63008;SDS011;49099;28.428;-16.488;2022-08-21T05:15:56;15.60;;;4.10;;
63008;SDS011;49099;28.428;-16.488;2022-08-21T05:18:25;21.33;;;4.78;;
63008;SDS011;49099;28.428;-16.488;2022-08-21T05:20:52;19.10;;;4.95;;
63008;SDS011;49099;28.428;-16.488;2022-08-21T05:23:19;18.67;;;4.35;;
63008;SDS011;49099;28.428;-16.488;2022-08-21T05:25:46;21.08;;;4.68;;
63008;SDS011;49099;28.428;-16.488;2022-08-21T05:28:14;19.52;;;4.00;;
63008;SDS011;49099;28.428;-16.488;2022-08-21T05:30:41;18.38;;;4.93;;
63008;SDS011;49099;28.428;-16.488;2022-08-21T05:33:08;18.88;;;4.55;;
63008;SDS011;49099;28.428;-16.488;2022-08-21T05:35:35;17.58;;;4.20;;
63008;SDS011;49099;28.428;-16.488;2022-08-21T05:38:04;17.67;;;4.60;;
63008;SDS011;49099;28.428;-16.488;2022-08-21T05:40:42;12.38;;;3.45;;
63008;SDS011;49099;28.428;-16.488;2022-08-21T05:43:10;15.45;;;4.25;;
63008;SDS011;49099;28.428;-16.488;2022-08-21T05:45:37;21.60;;;4.63;;
63008;SDS011;49099;28.428;-16.488;2022-08-21T05:48:10;14.55;;;4.13;;
63008;SDS011;49099;28.428;-16.488;2022-08-21T05:50:39;14.48;;;3.58;;
63008;SDS011;49099;28.428;-16.488;2022-08-21T05:53:08;24.10;;;5.45;;
63008;SDS011;49099;28.428;-16.488;2022-08-21T05:55:36;17.83;;;4.25;;
63008;SDS011;49099;28.428;-16.488;2022-08-21T05:58:11;24.13;;;4.40;;
63008;SDS011;49099;28.428;-16.488;2022-08-21T06:00:39;18.20;;;4.40;;
63008;SDS011;49099;28.428;-16.488;2022-08-21T06:03:16;26.13;;;5.20;;
63008;SDS011;49099;28.428;-16.488;2022-08-21T06:05:46;19.30;;;4.78;;
63008;SDS011;49099;28.428;-16.488;2022-08-21T06:08:14;20.85;;;5.10;;
63008;SDS011;49099;28.428;-16.488;2022-08-21T06:10:44;17.25;;;4.72;;
63008;SDS011;49099;28.428;-16.488;2022-08-21T06:13:12;16.33;;;4.38;;
63008;SDS011;49099;28.428;-16.488;2022-08-21T06:15:41;17.27;;;5.10;;
63008;SDS011;49099;28.428;-16.488;2022-08-21T06:18:08;15.77;;;4.13;;
63008;SDS011;49099;28.428;-16.488;2022-08-21T06:20:36;16.05;;;4.40;;
63008;SDS011;49099;28.428;-16.488;2022-08-21T06:23:03;15.70;;;4.22;;
63008;SDS011;49099;28.428;-16.488;2022-08-21T06:25:31;14.95;;;4.30;;
63008;SDS011;49099;28.428;-16.488;2022-08-21T06:28:05;16.52;;;3.90;;
63008;SDS011;49099;28.428;-16.488;2022-08-21T06:30:37;20.65;;;5.03;;
63008;SDS011;49099;28.428;-16.488;2022-08-21T06:33:05;14.63;;;4.03;;
63008;SDS011;49099;28.428;-16.488;2022-08-21T06:35:33;15.75;;;3.85;;
63008;SDS011;49099;28.428;-16.488;2022-08-21T06:38:02;16.50;;;3.88;;
63008;SDS011;49099;28.428;-16.488;2022-08-21T06:40:30;15.07;;;4.45;;
63008;SDS011;49099;28.428;-16.488;2022-08-21T06:43:13;18.02;;;3.85;;
63008;SDS011;49099;28.428;-16.488;2022-08-21T06:45:42;13.40;;;3.75;;
63008;SDS011;49099;28.428;-16.488;2022-08-21T06:48:10;15.13;;;4.05;;
63008;SDS011;49099;28.428;-16.488;2022-08-21T06:53:11;21.75;;;4.70;;
63008;SDS011;49099;28.428;-16.488;2022-08-21T06:55:43;15.68;;;4.30;;
63008;SDS011;49099;28.428;-16.488;2022-08-21T06:58:10;21.73;;;4.57;;
63008;SDS011;49099;28.428;-16.488;2022-08-21T07:00:39;20.92;;;5.50;;
63008;SDS011;49099;28.428;-16.488;2022-08-21T07:03:07;22.95;;;4.95;;
63008;SDS011;49099;28.428;-16.488;2022-08-21T07:05:43;17.70;;;4.75;;
63008;SDS011;49099;28.428;-16.488;2022-08-21T07:08:10;16.38;;;4.93;;
63008;SDS011;49099;28.428;-16.488;2022-08-21T07:10:37;19.88;;;5.13;;
63008;SDS011;49099;28.428;-16.488;2022-08-21T07:13:05;22.05;;;5.40;;
63008;SDS011;49099;28.428;-16.488;2022-08-21T07:15:32;25.70;;;5.68;;
63008;SDS011;49099;28.428;-16.488;2022-08-21T07:17:59;25.88;;;5.90;;
63008;SDS011;49099;28.428;-16.488;2022-08-21T07:20:28;20.25;;;5.13;;
63008;SDS011;49099;28.428;-16.488;2022-08-21T07:22:57;19.23;;;4.95;;
63008;SDS011;49099;28.428;-16.488;2022-08-21T07:25:27;23.77;;;5.47;;
63008;SDS011;49099;28.428;-16.488;2022-08-21T07:27:54;22.05;;;5.28;;
63008;SDS011;49099;28.428;-16.488;2022-08-21T07:30:22;21.67;;;4.68;;
63008;SDS011;49099;28.428;-16.488;2022-08-21T07:32:50;22.23;;;4.90;;
63008;SDS011;49099;28.428;-16.488;2022-08-21T07:35:18;24.85;;;5.72;;
63008;SDS011;49099;28.428;-16.488;2022-08-21T07:37:46;22.98;;;5.10;;
63008;SDS011;49099;28.428;-16.488;2022-08-21T07:40:13;23.05;;;5.72;;
63008;SDS011;49099;28.428;-16.488;2022-08-21T07:42:42;22.85;;;4.90;;
63008;SDS011;49099;28.428;-16.488;2022-08-21T07:45:12;24.83;;;5.90;;
63008;SDS011;49099;28.428;-16.488;2022-08-21T07:47:42;24.25;;;5.68;;
63008;SDS011;49099;28.428;-16.488;2022-08-21T07:50:10;27.50;;;6.03;;
63008;SDS011;49099;28.428;-16.488;2022-08-21T07:52:38;26.33;;;5.72;;
63008;SDS011;49099;28.428;-16.488;2022-08-21T07:55:07;24.23;;;5.53;;
63008;SDS011;49099;28.428;-16.488;2022-08-21T07:57:38;27.25;;;6.13;;
63008;SDS011;49099;28.428;-16.488;2022-08-21T08:00:06;25.88;;;5.60;;
63008;SDS011;49099;28.428;-16.488;2022-08-21T08:02:36;29.35;;;5.57;;
63008;SDS011;49099;28.428;-16.488;2022-08-21T08:05:04;22.85;;;6.18;;
63008;SDS011;49099;28.428;-16.488;2022-08-21T08:07:35;20.98;;;4.97;;
63008;SDS011;49099;28.428;-16.488;2022-08-21T08:10:03;27.73;;;5.70;;
63008;SDS011;49099;28.428;-16.488;2022-08-21T08:12:32;25.35;;;5.47;;
63008;SDS011;49099;28.428;-16.488;2022-08-21T08:15:01;23.75;;;5.47;;
63008;SDS011;49099;28.428;-16.488;2022-08-21T08:17:28;33.08;;;7.15;;
63008;SDS011;49099;28.428;-16.488;2022-08-21T08:19:56;29.08;;;6.32;;
63008;SDS011;49099;28.428;-16.488;2022-08-21T08:22:23;25.13;;;5.60;;
63008;SDS011;49099;28.428;-16.488;2022-08-21T08:24:51;21.42;;;5.80;;
63008;SDS011;49099;28.428;-16.488;2022-08-21T08:27:19;31.02;;;6.38;;
63008;SDS011;49099;28.428;-16.488;2022-08-21T08:29:47;25.55;;;6.72;;
63008;SDS011;49099;28.428;-16.488;2022-08-21T08:32:14;31.90;;;7.05;;
63008;SDS011;49099;28.428;-16.488;2022-08-21T08:34:42;34.20;;;7.00;;
63008;SDS011;49099;28.428;-16.488;2022-08-21T08:37:09;38.33;;;7.78;;
63008;SDS011;49099;28.428;-16.488;2022-08-21T08:39:37;39.65;;;8.10;;
63008;SDS011;49099;28.428;-16.488;2022-08-21T08:47:31;40.65;;;8.57;;
63008;SDS011;49099;28.428;-16.488;2022-08-21T08:50:03;50.45;;;9.20;;
63008;SDS011;49099;28.428;-16.488;2022-08-21T08:52:35;46.67;;;8.00;;
63008;SDS011;49099;28.428;-16.488;2022-08-21T08:55:07;46.90;;;8.60;;
63008;SDS011;49099;28.428;-16.488;2022-08-21T08:57:42;59.70;;;10.95;;
63008;SDS011;49099;28.428;-16.488;2022-08-21T09:00:16;65.50;;;11.65;;
63008;SDS011;49099;28.428;-16.488;2022-08-21T09:02:47;75.07;;;12.73;;
63008;SDS011;49099;28.428;-16.488;2022-08-21T09:07:56;56.08;;;10.25;;
63008;SDS011;49099;28.428;-16.488;2022-08-21T09:13:36;69.13;;;10.82;;
63008;SDS011;49099;28.428;-16.488;2022-08-21T09:19:08;57.65;;;10.70;;
63008;SDS011;49099;28.428;-16.488;2022-08-21T09:22:06;50.10;;;9.55;;
63008;SDS011;49099;28.428;-16.488;2022-08-21T09:24:45;60.88;;;10.98;;
63008;SDS011;49099;28.428;-16.488;2022-08-21T09:27:23;61.00;;;11.55;;
63008;SDS011;49099;28.428;-16.488;2022-08-21T09:29:52;57.75;;;10.07;;
63008;SDS011;49099;28.428;-16.488;2022-08-21T09:32:22;67.13;;;11.02;;
63008;SDS011;49099;28.428;-16.488;2022-08-21T09:40:38;64.18;;;10.50;;
63008;SDS011;49099;28.428;-16.488;2022-08-21T09:45:39;63.15;;;9.95;;
63008;SDS011;49099;28.428;-16.488;2022-08-21T09:48:09;52.47;;;9.70;;
63008;SDS011;49099;28.428;-16.488;2022-08-21T09:50:36;51.70;;;9.70;;
63008;SDS011;49099;28.428;-16.488;2022-08-21T09:53:03;64.47;;;10.63;;
63008;SDS011;49099;28.428;-16.488;2022-08-21T09:58:35;54.50;;;9.45;;
63008;SDS011;49099;28.428;-16.488;2022-08-21T10:01:05;56.22;;;10.23;;
63008;SDS011;49099;28.428;-16.488;2022-08-21T10:03:33;37.20;;;9.13;;
63008;SDS011;49099;28.428;-16.488;2022-08-21T10:06:02;59.47;;;10.15;;
63008;SDS011;49099;28.428;-16.488;2022-08-21T10:08:35;42.33;;;8.93;;
63008;SDS011;49099;28.428;-16.488;2022-08-21T10:11:09;37.50;;;7.95;;
63008;SDS011;49099;28.428;-16.488;2022-08-21T10:19:32;59.85;;;11.48;;
63008;SDS011;49099;28.428;-16.488;2022-08-21T10:22:10;66.80;;;11.65;;
63008;SDS011;49099;28.428;-16.488;2022-08-21T10:24:52;56.88;;;10.43;;
63008;SDS011;49099;28.428;-16.488;2022-08-21T10:30:35;33.60;;;7.40;;
63008;SDS011;49099;28.428;-16.488;2022-08-21T10:33:12;36.42;;;7.05;;
63008;SDS011;49099;28.428;-16.488;2022-08-21T10:36:04;19.67;;;4.60;;
63008;SDS011;49099;28.428;-16.488;2022-08-21T10:44:29;22.58;;;4.90;;
63008;SDS011;49099;28.428;-16.488;2022-08-21T10:47:06;23.70;;;6.20;;
63008;SDS011;49099;28.428;-16.488;2022-08-21T10:49:40;27.55;;;5.80;;
63008;SDS011;49099;28.428;-16.488;2022-08-21T10:55:08;21.55;;;5.20;;
63008;SDS011;49099;28.428;-16.488;2022-08-21T11:00:22;23.38;;;5.53;;
63008;SDS011;49099;28.428;-16.488;2022-08-21T11:02:57;23.77;;;5.88;;
63008;SDS011;49099;28.428;-16.488;2022-08-21T11:05:33;28.80;;;6.35;;
63008;SDS011;49099;28.428;-16.488;2022-08-21T11:13:11;21.15;;;5.20;;
63008;SDS011;49099;28.428;-16.488;2022-08-21T11:15:50;16.30;;;4.10;;
63008;SDS011;49099;28.428;-16.488;2022-08-21T11:18:41;23.85;;;5.32;;
63008;SDS011;49099;28.428;-16.488;2022-08-21T11:21:32;20.10;;;4.82;;
63008;SDS011;49099;28.428;-16.488;2022-08-21T11:24:32;15.52;;;4.60;;
63008;SDS011;49099;28.428;-16.488;2022-08-21T11:27:36;14.15;;;3.85;;
63008;SDS011;49099;28.428;-16.488;2022-08-21T11:30:18;13.20;;;3.65;;
63008;SDS011;49099;28.428;-16.488;2022-08-21T11:38:21;16.90;;;4.32;;
63008;SDS011;49099;28.428;-16.488;2022-08-21T11:52:59;18.17;;;4.82;;
63008;SDS011;49099;28.428;-16.488;2022-08-21T11:58:45;12.27;;;3.70;;
63008;SDS011;49099;28.428;-16.488;2022-08-21T12:01:19;23.92;;;5.70;;
63008;SDS011;49099;28.428;-16.488;2022-08-21T12:06:44;18.67;;;5.10;;
63008;SDS011;49099;28.428;-16.488;2022-08-21T12:12:13;22.73;;;5.57;;
63008;SDS011;49099;28.428;-16.488;2022-08-21T12:15:31;16.63;;;4.45;;
63008;SDS011;49099;28.428;-16.488;2022-08-21T12:20:43;37.67;;;8.18;;
63008;SDS011;49099;28.428;-16.488;2022-08-21T12:23:25;25.88;;;6.28;;
63008;SDS011;49099;28.428;-16.488;2022-08-21T12:25:59;54.60;;;9.65;;
63008;SDS011;49099;28.428;-16.488;2022-08-21T12:28:31;42.63;;;9.05;;
63008;SDS011;49099;28.428;-16.488;2022-08-21T12:30:59;34.13;;;7.82;;
63008;SDS011;49099;28.428;-16.488;2022-08-21T12:33:59;26.90;;;6.68;;
63008;SDS011;49099;28.428;-16.488;2022-08-21T12:36:27;21.40;;;5.90;;
63008;SDS011;49099;28.428;-16.488;2022-08-21T12:39:05;22.70;;;5.80;;
63008;SDS011;49099;28.428;-16.488;2022-08-21T12:41:48;23.88;;;5.97;;
63008;SDS011;49099;28.428;-16.488;2022-08-21T12:44:46;22.35;;;5.78;;
63008;SDS011;49099;28.428;-16.488;2022-08-21T12:47:30;27.33;;;5.80;;
63008;SDS011;49099;28.428;-16.488;2022-08-21T12:50:02;24.80;;;6.40;;
63008;SDS011;49099;28.428;-16.488;2022-08-21T12:52:38;30.63;;;7.47;;
63008;SDS011;49099;28.428;-16.488;2022-08-21T12:55:12;29.33;;;7.10;;
63008;SDS011;49099;28.428;-16.488;2022-08-21T12:57:42;35.22;;;7.25;;
63008;SDS011;49099;28.428;-16.488;2022-08-21T13:00:11;29.05;;;6.55;;
63008;SDS011;49099;28.428;-16.488;2022-08-21T13:02:46;30.23;;;7.10;;
63008;SDS011;49099;28.428;-16.488;2022-08-21T13:05:16;38.63;;;8.25;;
63008;SDS011;49099;28.428;-16.488;2022-08-21T13:07:57;39.45;;;8.98;;
63008;SDS011;49099;28.428;-16.488;2022-08-21T13:10:27;39.08;;;8.77;;
63008;SDS011;49099;28.428;-16.488;2022-08-21T13:12:58;45.47;;;8.45;;
63008;SDS011;49099;28.428;-16.488;2022-08-21T13:15:38;36.28;;;7.63;;
63008;SDS011;49099;28.428;-16.488;2022-08-21T13:18:23;33.25;;;8.23;;
63008;SDS011;49099;28.428;-16.488;2022-08-21T13:20:51;39.22;;;8.52;;
63008;SDS011;49099;28.428;-16.488;2022-08-21T13:23:29;45.75;;;8.40;;
63008;SDS011;49099;28.428;-16.488;2022-08-21T13:25:57;39.58;;;8.35;;
63008;SDS011;49099;28.428;-16.488;2022-08-21T13:28:25;34.58;;;6.78;;
63008;SDS011;49099;28.428;-16.488;2022-08-21T13:31:00;33.22;;;7.15;;
63008;SDS011;49099;28.428;-16.488;2022-08-21T13:33:29;30.33;;;7.68;;
63008;SDS011;49099;28.428;-16.488;2022-08-21T13:38:36;40.05;;;8.48;;
63008;SDS011;49099;28.428;-16.488;2022-08-21T13:43:47;29.48;;;6.10;;
63008;SDS011;49099;28.428;-16.488;2022-08-21T13:46:26;34.55;;;8.20;;
63008;SDS011;49099;28.428;-16.488;2022-08-21T13:48:55;53.17;;;10.88;;
63008;SDS011;49099;28.428;-16.488;2022-08-21T13:51:24;42.53;;;9.20;;
63008;SDS011;49099;28.428;-16.488;2022-08-21T13:53:51;29.58;;;7.28;;
63008;SDS011;49099;28.428;-16.488;2022-08-21T13:56:30;31.63;;;7.10;;
63008;SDS011;49099;28.428;-16.488;2022-08-21T13:59:00;18.23;;;5.00;;
63008;SDS011;49099;28.428;-16.488;2022-08-21T14:01:31;25.63;;;6.22;;
63008;SDS011;49099;28.428;-16.488;2022-08-21T14:04:04;24.98;;;6.28;;
63008;SDS011;49099;28.428;-16.488;2022-08-21T14:06:41;54.83;;;9.60;;
63008;SDS011;49099;28.428;-16.488;2022-08-21T14:09:13;45.35;;;9.00;;
63008;SDS011;49099;28.428;-16.488;2022-08-21T14:12:10;41.63;;;9.52;;
63008;SDS011;49099;28.428;-16.488;2022-08-21T14:14:49;33.50;;;7.30;;
63008;SDS011;49099;28.428;-16.488;2022-08-21T14:17:29;60.08;;;11.60;;
63008;SDS011;49099;28.428;-16.488;2022-08-21T14:19:59;56.35;;;11.10;;
63008;SDS011;49099;28.428;-16.488;2022-08-21T14:25:10;53.97;;;10.18;;
63008;SDS011;49099;28.428;-16.488;2022-08-21T14:27:44;48.03;;;9.13;;
63008;SDS011;49099;28.428;-16.488;2022-08-21T14:30:19;33.95;;;8.25;;
63008;SDS011;49099;28.428;-16.488;2022-08-21T14:32:58;48.60;;;9.32;;
63008;SDS011;49099;28.428;-16.488;2022-08-21T14:35:26;44.55;;;9.48;;
63008;SDS011;49099;28.428;-16.488;2022-08-21T14:37:53;45.78;;;9.27;;
63008;SDS011;49099;28.428;-16.488;2022-08-21T14:40:22;53.50;;;9.35;;
63008;SDS011;49099;28.428;-16.488;2022-08-21T14:42:51;50.10;;;9.32;;
63008;SDS011;49099;28.428;-16.488;2022-08-21T14:45:20;47.42;;;9.48;;
63008;SDS011;49099;28.428;-16.488;2022-08-21T14:47:53;37.97;;;8.65;;
63008;SDS011;49099;28.428;-16.488;2022-08-21T14:50:20;38.00;;;8.35;;
63008;SDS011;49099;28.428;-16.488;2022-08-21T14:52:48;43.65;;;9.38;;
63008;SDS011;49099;28.428;-16.488;2022-08-21T14:55:17;42.78;;;9.50;;
63008;SDS011;49099;28.428;-16.488;2022-08-21T14:57:46;47.80;;;10.00;;
63008;SDS011;49099;28.428;-16.488;2022-08-21T15:00:18;45.05;;;10.02;;
63008;SDS011;49099;28.428;-16.488;2022-08-21T15:03:01;42.97;;;9.23;;
63008;SDS011;49099;28.428;-16.488;2022-08-21T15:05:29;45.67;;;9.07;;
63008;SDS011;49099;28.428;-16.488;2022-08-21T15:07:59;37.03;;;8.10;;
63008;SDS011;49099;28.428;-16.488;2022-08-21T15:10:27;48.33;;;8.63;;
63008;SDS011;49099;28.428;-16.488;2022-08-21T15:12:56;43.80;;;8.63;;
63008;SDS011;49099;28.428;-16.488;2022-08-21T15:15:23;43.78;;;8.70;;
63008;SDS011;49099;28.428;-16.488;2022-08-21T15:17:50;42.55;;;8.65;;
63008;SDS011;49099;28.428;-16.488;2022-08-21T15:20:18;35.20;;;8.00;;
63008;SDS011;49099;28.428;-16.488;2022-08-21T15:22:45;34.70;;;7.63;;
63008;SDS011;49099;28.428;-16.488;2022-08-21T15:25:23;38.97;;;8.55;;
63008;SDS011;49099;28.428;-16.488;2022-08-21T15:27:50;37.90;;;7.93;;
63008;SDS011;49099;28.428;-16.488;2022-08-21T15:30:17;37.22;;;8.32;;
63008;SDS011;49099;28.428;-16.488;2022-08-21T15:32:44;41.45;;;8.60;;
63008;SDS011;49099;28.428;-16.488;2022-08-21T15:35:11;36.40;;;8.75;;
63008;SDS011;49099;28.428;-16.488;2022-08-21T15:37:39;32.92;;;8.13;;
63008;SDS011;49099;28.428;-16.488;2022-08-21T15:40:06;40.42;;;8.85;;
63008;SDS011;49099;28.428;-16.488;2022-08-21T15:42:34;41.33;;;8.63;;
63008;SDS011;49099;28.428;-16.488;2022-08-21T15:45:02;39.05;;;9.02;;
63008;SDS011;49099;28.428;-16.488;2022-08-21T15:47:34;42.17;;;9.00;;
63008;SDS011;49099;28.428;-16.488;2022-08-21T15:50:03;41.42;;;9.10;;
63008;SDS011;49099;28.428;-16.488;2022-08-21T15:52:33;43.20;;;8.93;;
63008;SDS011;49099;28.428;-16.488;2022-08-21T15:55:01;35.25;;;8.15;;
63008;SDS011;49099;28.428;-16.488;2022-08-21T15:57:28;34.08;;;8.57;;
63008;SDS011;49099;28.428;-16.488;2022-08-21T16:02:53;37.72;;;9.02;;